Startpagina
METAR-TAF:

METAR-TAF

Vliegvelden :

Perth, Australië

Perth Airport

breedte: 31-56S, lengte: 115-57E, hoogte: 20 m

Actueel weer

Dit bericht is 37 minuten geleden gemaakt, om 07:00 UTC
Wind 13 kt uit het westen
Temperatuur 31°C
Vochtigheid 19%
Druk 1008 hPa
Zicht 10 km of meer
geen wolken onder 1500 m en geen cumulonimbus

METAR: YPPH 240700Z 27013KT CAVOK 31/05 Q1008 NOSIG

Tijdstip: 15:37 (07:37 UTC)

Verwachting

Dit bericht is 2 uur en het 35 minuten geleden gemaakt, om 05:02 UTC
Verwachting geldig van 24 om 06 UTC tot 25 om 12 UTC
Wind 14 kt uit het zuidwesten
Zicht 10 km of meer
geen wolken onder 1500 m en geen cumulonimbus
Van 24 om 1300 UTC
Wind 10 kt uit het zuiden
Zicht 10 km of meer
geen wolken onder 1500 m en geen cumulonimbus
Van 25 om 0500 UTC
Wind 18 kt uit het zuidzuidwesten
Zicht 10 km of meer
geen wolken onder 1500 m en geen cumulonimbus

TAF: YPPH 240502Z 2406/2512 22014KT CAVOK FM241300 18010KT CAVOK FM250500 21018KT CAVOK

Waarnemingen en weersverwachtingen van meer dan 4000 vliegvelden (METAR en TAF).

De beschikbare stations zijn de gele en rode punten op de kaart.

Ga met uw muis naar het station om de naam te zien.

Klik dan om waarnemingen en weersverwachtingen te zien.

kaart wijzigen: klik op de groene knoppen met een zwart kruis om in te zoomen, op de groene knop met een streepje om uit te zoomen of op de groene pijlen voor aangrenzende kaarten.


METAR-TAF: